sensor_id;sensor_type;location;lat;lon;timestamp;P1;durP1;ratioP1;P2;durP2;ratioP2
21168;SDS011;10742;51.816;8.662;2023-08-12T00:00:26;11.38;;;6.05;;
21168;SDS011;10742;51.816;8.662;2023-08-12T00:03:29;10.13;;;6.38;;
21168;SDS011;10742;51.816;8.662;2023-08-12T00:06:32;12.55;;;5.97;;
21168;SDS011;10742;51.816;8.662;2023-08-12T00:09:34;16.92;;;7.88;;
21168;SDS011;10742;51.816;8.662;2023-08-12T00:12:38;18.27;;;7.72;;
21168;SDS011;10742;51.816;8.662;2023-08-12T00:15:40;14.15;;;7.38;;
21168;SDS011;10742;51.816;8.662;2023-08-12T00:18:43;18.25;;;7.43;;
21168;SDS011;10742;51.816;8.662;2023-08-12T00:21:46;11.43;;;7.63;;
21168;SDS011;10742;51.816;8.662;2023-08-12T00:24:48;16.05;;;8.57;;
21168;SDS011;10742;51.816;8.662;2023-08-12T00:27:51;14.57;;;8.82;;
21168;SDS011;10742;51.816;8.662;2023-08-12T00:30:54;13.85;;;8.35;;
21168;SDS011;10742;51.816;8.662;2023-08-12T00:33:57;24.50;;;9.98;;
21168;SDS011;10742;51.816;8.662;2023-08-12T00:36:59;16.67;;;8.13;;
21168;SDS011;10742;51.816;8.662;2023-08-12T00:40:02;21.58;;;11.70;;
21168;SDS011;10742;51.816;8.662;2023-08-12T00:43:06;34.45;;;11.30;;
21168;SDS011;10742;51.816;8.662;2023-08-12T00:46:08;24.50;;;12.07;;
21168;SDS011;10742;51.816;8.662;2023-08-12T00:49:12;19.08;;;10.43;;
21168;SDS011;10742;51.816;8.662;2023-08-12T00:52:15;15.30;;;8.73;;
21168;SDS011;10742;51.816;8.662;2023-08-12T00:55:20;31.00;;;14.05;;
21168;SDS011;10742;51.816;8.662;2023-08-12T00:58:23;25.98;;;12.57;;
21168;SDS011;10742;51.816;8.662;2023-08-12T01:01:26;32.35;;;12.68;;
21168;SDS011;10742;51.816;8.662;2023-08-12T01:04:29;32.88;;;11.98;;
21168;SDS011;10742;51.816;8.662;2023-08-12T01:07:32;42.78;;;16.40;;
21168;SDS011;10742;51.816;8.662;2023-08-12T01:10:35;61.13;;;21.60;;
21168;SDS011;10742;51.816;8.662;2023-08-12T01:16:52;82.55;;;29.65;;
21168;SDS011;10742;51.816;8.662;2023-08-12T01:20:06;77.30;;;26.45;;
21168;SDS011;10742;51.816;8.662;2023-08-12T01:23:16;113.45;;;36.60;;
21168;SDS011;10742;51.816;8.662;2023-08-12T01:26:18;180.48;;;54.35;;
21168;SDS011;10742;51.816;8.662;2023-08-12T01:29:21;165.80;;;49.60;;
21168;SDS011;10742;51.816;8.662;2023-08-12T01:32:49;217.27;;;60.38;;
21168;SDS011;10742;51.816;8.662;2023-08-12T01:35:54;171.35;;;51.45;;
21168;SDS011;10742;51.816;8.662;2023-08-12T01:39:01;245.95;;;63.65;;
21168;SDS011;10742;51.816;8.662;2023-08-12T01:42:05;192.32;;;60.60;;
21168;SDS011;10742;51.816;8.662;2023-08-12T01:45:08;214.80;;;64.22;;
21168;SDS011;10742;51.816;8.662;2023-08-12T01:48:11;340.77;;;93.15;;
21168;SDS011;10742;51.816;8.662;2023-08-12T01:51:14;384.77;;;101.00;;
21168;SDS011;10742;51.816;8.662;2023-08-12T01:54:17;507.23;;;125.78;;
21168;SDS011;10742;51.816;8.662;2023-08-12T01:57:19;517.35;;;132.40;;
21168;SDS011;10742;51.816;8.662;2023-08-12T02:00:22;634.97;;;165.43;;
21168;SDS011;10742;51.816;8.662;2023-08-12T02:03:24;1235.95;;;290.52;;
21168;SDS011;10742;51.816;8.662;2023-08-12T02:06:27;1845.75;;;378.02;;
21168;SDS011;10742;51.816;8.662;2023-08-12T02:09:30;1746.45;;;372.02;;
21168;SDS011;10742;51.816;8.662;2023-08-12T02:12:32;1999.90;;;547.90;;
21168;SDS011;10742;51.816;8.662;2023-08-12T02:15:35;1999.90;;;614.60;;
21168;SDS011;10742;51.816;8.662;2023-08-12T02:18:39;1999.90;;;612.45;;
21168;SDS011;10742;51.816;8.662;2023-08-12T02:21:41;1999.90;;;636.17;;
21168;SDS011;10742;51.816;8.662;2023-08-12T02:24:44;1999.90;;;689.50;;
21168;SDS011;10742;51.816;8.662;2023-08-12T02:27:47;1999.90;;;789.70;;
21168;SDS011;10742;51.816;8.662;2023-08-12T02:30:49;1999.90;;;832.25;;
21168;SDS011;10742;51.816;8.662;2023-08-12T02:33:52;1999.90;;;873.97;;
21168;SDS011;10742;51.816;8.662;2023-08-12T02:36:55;1999.90;;;915.70;;
21168;SDS011;10742;51.816;8.662;2023-08-12T02:39:58;1999.90;;;874.67;;
21168;SDS011;10742;51.816;8.662;2023-08-12T02:43:00;1999.90;;;943.00;;
21168;SDS011;10742;51.816;8.662;2023-08-12T02:46:03;1999.90;;;948.90;;
21168;SDS011;10742;51.816;8.662;2023-08-12T02:49:06;1999.90;;;982.80;;
21168;SDS011;10742;51.816;8.662;2023-08-12T02:52:08;1999.90;;;999.90;;
21168;SDS011;10742;51.816;8.662;2023-08-12T02:55:11;1999.90;;;994.03;;
21168;SDS011;10742;51.816;8.662;2023-08-12T02:58:14;1999.90;;;999.90;;
21168;SDS011;10742;51.816;8.662;2023-08-12T03:01:17;1999.90;;;999.90;;
21168;SDS011;10742;51.816;8.662;2023-08-12T03:04:20;1999.90;;;999.90;;
21168;SDS011;10742;51.816;8.662;2023-08-12T03:07:22;1999.90;;;999.90;;
21168;SDS011;10742;51.816;8.662;2023-08-12T03:10:25;1999.90;;;999.90;;
21168;SDS011;10742;51.816;8.662;2023-08-12T03:13:28;1999.90;;;999.90;;
21168;SDS011;10742;51.816;8.662;2023-08-12T03:16:32;1999.90;;;999.90;;
21168;SDS011;10742;51.816;8.662;2023-08-12T03:19:35;1999.90;;;999.90;;
21168;SDS011;10742;51.816;8.662;2023-08-12T03:22:37;1999.90;;;999.90;;
21168;SDS011;10742;51.816;8.662;2023-08-12T03:25:40;1999.90;;;999.90;;
21168;SDS011;10742;51.816;8.662;2023-08-12T03:28:43;1999.90;;;999.90;;
21168;SDS011;10742;51.816;8.662;2023-08-12T03:31:49;1999.90;;;999.90;;
21168;SDS011;10742;51.816;8.662;2023-08-12T03:34:55;1999.90;;;999.90;;
21168;SDS011;10742;51.816;8.662;2023-08-12T03:37:58;1999.90;;;999.90;;
21168;SDS011;10742;51.816;8.662;2023-08-12T03:41:02;1999.90;;;999.90;;
21168;SDS011;10742;51.816;8.662;2023-08-12T03:44:07;1999.90;;;999.90;;
21168;SDS011;10742;51.816;8.662;2023-08-12T03:47:10;1999.90;;;999.90;;
21168;SDS011;10742;51.816;8.662;2023-08-12T03:50:13;1999.90;;;999.90;;
21168;SDS011;10742;51.816;8.662;2023-08-12T03:53:16;1999.90;;;999.90;;
21168;SDS011;10742;51.816;8.662;2023-08-12T03:56:20;1999.90;;;999.90;;
21168;SDS011;10742;51.816;8.662;2023-08-12T03:59:22;1999.90;;;999.90;;
21168;SDS011;10742;51.816;8.662;2023-08-12T04:02:25;1999.90;;;999.90;;
21168;SDS011;10742;51.816;8.662;2023-08-12T04:05:27;1999.90;;;999.90;;
21168;SDS011;10742;51.816;8.662;2023-08-12T04:08:30;1999.90;;;999.90;;
21168;SDS011;10742;51.816;8.662;2023-08-12T04:11:34;1999.90;;;999.90;;
21168;SDS011;10742;51.816;8.662;2023-08-12T04:14:36;1999.90;;;999.90;;
21168;SDS011;10742;51.816;8.662;2023-08-12T04:17:39;1999.90;;;999.90;;
21168;SDS011;10742;51.816;8.662;2023-08-12T04:20:44;1999.90;;;999.90;;
21168;SDS011;10742;51.816;8.662;2023-08-12T04:23:53;1999.90;;;999.90;;
21168;SDS011;10742;51.816;8.662;2023-08-12T04:26:57;1999.90;;;999.90;;
21168;SDS011;10742;51.816;8.662;2023-08-12T04:30:01;1999.90;;;999.90;;
21168;SDS011;10742;51.816;8.662;2023-08-12T04:33:05;1999.90;;;999.90;;
21168;SDS011;10742;51.816;8.662;2023-08-12T04:36:08;1999.90;;;999.90;;
21168;SDS011;10742;51.816;8.662;2023-08-12T04:39:12;1999.90;;;999.90;;
21168;SDS011;10742;51.816;8.662;2023-08-12T04:42:17;1999.90;;;999.90;;
21168;SDS011;10742;51.816;8.662;2023-08-12T04:45:20;1999.90;;;999.90;;
21168;SDS011;10742;51.816;8.662;2023-08-12T04:48:24;1999.90;;;999.90;;
21168;SDS011;10742;51.816;8.662;2023-08-12T04:51:27;1999.90;;;999.90;;
21168;SDS011;10742;51.816;8.662;2023-08-12T04:54:31;1999.90;;;954.38;;
21168;SDS011;10742;51.816;8.662;2023-08-12T04:57:34;1999.90;;;999.90;;
21168;SDS011;10742;51.816;8.662;2023-08-12T05:00:36;1999.90;;;997.67;;
21168;SDS011;10742;51.816;8.662;2023-08-12T05:03:40;1999.90;;;999.90;;
21168;SDS011;10742;51.816;8.662;2023-08-12T05:06:44;1999.90;;;999.90;;
21168;SDS011;10742;51.816;8.662;2023-08-12T05:09:47;1999.90;;;999.90;;
21168;SDS011;10742;51.816;8.662;2023-08-12T05:12:50;1999.90;;;935.47;;
21168;SDS011;10742;51.816;8.662;2023-08-12T05:15:56;1999.90;;;996.63;;
21168;SDS011;10742;51.816;8.662;2023-08-12T05:18:59;1999.90;;;992.97;;
21168;SDS011;10742;51.816;8.662;2023-08-12T05:22:01;1999.90;;;965.42;;
21168;SDS011;10742;51.816;8.662;2023-08-12T05:25:04;1999.90;;;963.08;;
21168;SDS011;10742;51.816;8.662;2023-08-12T05:28:07;1999.90;;;949.72;;
21168;SDS011;10742;51.816;8.662;2023-08-12T05:31:09;1999.90;;;916.15;;
21168;SDS011;10742;51.816;8.662;2023-08-12T05:34:12;1999.90;;;999.90;;
21168;SDS011;10742;51.816;8.662;2023-08-12T05:37:17;1999.90;;;921.50;;
21168;SDS011;10742;51.816;8.662;2023-08-12T05:40:20;1999.90;;;941.63;;
21168;SDS011;10742;51.816;8.662;2023-08-12T05:43:22;1999.90;;;999.90;;
21168;SDS011;10742;51.816;8.662;2023-08-12T05:46:25;1999.90;;;959.58;;
21168;SDS011;10742;51.816;8.662;2023-08-12T05:49:27;1999.90;;;999.90;;
21168;SDS011;10742;51.816;8.662;2023-08-12T05:52:30;1999.90;;;962.15;;
21168;SDS011;10742;51.816;8.662;2023-08-12T05:55:33;1999.90;;;802.83;;
21168;SDS011;10742;51.816;8.662;2023-08-12T05:58:37;1999.90;;;999.90;;
21168;SDS011;10742;51.816;8.662;2023-08-12T06:01:39;1999.90;;;868.22;;
21168;SDS011;10742;51.816;8.662;2023-08-12T06:04:42;1999.90;;;999.90;;
21168;SDS011;10742;51.816;8.662;2023-08-12T06:07:45;1999.90;;;985.92;;
21168;SDS011;10742;51.816;8.662;2023-08-12T06:10:47;1999.90;;;896.28;;
21168;SDS011;10742;51.816;8.662;2023-08-12T06:13:50;1999.90;;;970.88;;
21168;SDS011;10742;51.816;8.662;2023-08-12T06:16:53;1999.90;;;999.90;;
21168;SDS011;10742;51.816;8.662;2023-08-12T06:19:56;1999.90;;;959.55;;
21168;SDS011;10742;51.816;8.662;2023-08-12T06:22:59;1999.90;;;969.30;;
21168;SDS011;10742;51.816;8.662;2023-08-12T06:26:02;1999.90;;;999.90;;
21168;SDS011;10742;51.816;8.662;2023-08-12T06:29:04;1999.90;;;988.08;;
21168;SDS011;10742;51.816;8.662;2023-08-12T06:32:07;1999.90;;;996.95;;
21168;SDS011;10742;51.816;8.662;2023-08-12T06:35:10;1999.90;;;995.63;;
21168;SDS011;10742;51.816;8.662;2023-08-12T06:38:12;1999.90;;;998.35;;
21168;SDS011;10742;51.816;8.662;2023-08-12T06:41:15;1999.90;;;991.15;;
21168;SDS011;10742;51.816;8.662;2023-08-12T06:44:18;1999.90;;;988.10;;
21168;SDS011;10742;51.816;8.662;2023-08-12T06:47:20;1999.90;;;990.85;;
21168;SDS011;10742;51.816;8.662;2023-08-12T06:50:23;1999.90;;;999.90;;
21168;SDS011;10742;51.816;8.662;2023-08-12T06:53:26;1999.90;;;999.90;;
21168;SDS011;10742;51.816;8.662;2023-08-12T06:56:28;1999.90;;;999.90;;
21168;SDS011;10742;51.816;8.662;2023-08-12T06:59:31;1999.90;;;999.90;;
21168;SDS011;10742;51.816;8.662;2023-08-12T07:02:34;1999.90;;;999.90;;
21168;SDS011;10742;51.816;8.662;2023-08-12T07:05:36;1999.90;;;999.90;;
21168;SDS011;10742;51.816;8.662;2023-08-12T07:08:39;1999.90;;;999.90;;
21168;SDS011;10742;51.816;8.662;2023-08-12T07:11:41;1999.90;;;999.90;;
21168;SDS011;10742;51.816;8.662;2023-08-12T07:14:44;1999.90;;;999.90;;
21168;SDS011;10742;51.816;8.662;2023-08-12T07:17:46;1999.90;;;999.90;;
21168;SDS011;10742;51.816;8.662;2023-08-12T07:20:49;1999.90;;;999.90;;
21168;SDS011;10742;51.816;8.662;2023-08-12T07:23:52;1999.90;;;999.90;;
21168;SDS011;10742;51.816;8.662;2023-08-12T07:27:02;1999.90;;;999.90;;
21168;SDS011;10742;51.816;8.662;2023-08-12T07:30:07;1999.90;;;999.90;;
21168;SDS011;10742;51.816;8.662;2023-08-12T07:33:10;1999.90;;;999.90;;
21168;SDS011;10742;51.816;8.662;2023-08-12T07:36:13;1999.90;;;999.90;;
21168;SDS011;10742;51.816;8.662;2023-08-12T07:39:15;1999.90;;;999.90;;
21168;SDS011;10742;51.816;8.662;2023-08-12T07:42:18;1999.90;;;999.90;;
21168;SDS011;10742;51.816;8.662;2023-08-12T07:45:24;1999.90;;;999.90;;
21168;SDS011;10742;51.816;8.662;2023-08-12T07:48:26;1999.90;;;999.90;;
21168;SDS011;10742;51.816;8.662;2023-08-12T07:51:29;1999.90;;;999.90;;
21168;SDS011;10742;51.816;8.662;2023-08-12T07:54:32;1999.90;;;999.90;;
21168;SDS011;10742;51.816;8.662;2023-08-12T07:57:34;1999.90;;;999.90;;
21168;SDS011;10742;51.816;8.662;2023-08-12T08:00:37;1999.90;;;999.90;;
21168;SDS011;10742;51.816;8.662;2023-08-12T08:03:39;1999.90;;;999.90;;
21168;SDS011;10742;51.816;8.662;2023-08-12T08:06:42;1999.90;;;999.90;;
21168;SDS011;10742;51.816;8.662;2023-08-12T08:09:45;1999.90;;;999.90;;
21168;SDS011;10742;51.816;8.662;2023-08-12T08:12:47;1999.90;;;999.90;;
21168;SDS011;10742;51.816;8.662;2023-08-12T08:15:50;1999.90;;;999.90;;
21168;SDS011;10742;51.816;8.662;2023-08-12T08:18:52;1999.90;;;999.90;;
21168;SDS011;10742;51.816;8.662;2023-08-12T08:21:56;1999.90;;;999.90;;
21168;SDS011;10742;51.816;8.662;2023-08-12T08:24:59;1999.90;;;999.90;;
21168;SDS011;10742;51.816;8.662;2023-08-12T08:28:02;1999.90;;;999.90;;
21168;SDS011;10742;51.816;8.662;2023-08-12T08:31:05;1999.90;;;999.90;;
21168;SDS011;10742;51.816;8.662;2023-08-12T08:34:07;1999.90;;;999.90;;
21168;SDS011;10742;51.816;8.662;2023-08-12T08:37:11;1999.90;;;999.90;;
21168;SDS011;10742;51.816;8.662;2023-08-12T08:40:14;1999.90;;;999.90;;
21168;SDS011;10742;51.816;8.662;2023-08-12T08:43:17;1999.90;;;999.90;;
21168;SDS011;10742;51.816;8.662;2023-08-12T08:46:24;1999.90;;;999.90;;
21168;SDS011;10742;51.816;8.662;2023-08-12T08:49:27;1999.90;;;999.90;;
21168;SDS011;10742;51.816;8.662;2023-08-12T08:52:50;1999.90;;;999.90;;
21168;SDS011;10742;51.816;8.662;2023-08-12T08:56:13;1999.90;;;999.90;;
21168;SDS011;10742;51.816;8.662;2023-08-12T08:59:35;1999.90;;;999.90;;
21168;SDS011;10742;51.816;8.662;2023-08-12T09:02:57;1999.90;;;999.90;;
21168;SDS011;10742;51.816;8.662;2023-08-12T09:06:22;1999.90;;;999.90;;
21168;SDS011;10742;51.816;8.662;2023-08-12T09:09:46;1999.90;;;999.90;;
21168;SDS011;10742;51.816;8.662;2023-08-12T09:13:10;1999.90;;;999.90;;
21168;SDS011;10742;51.816;8.662;2023-08-12T09:16:32;1999.90;;;999.90;;
21168;SDS011;10742;51.816;8.662;2023-08-12T09:19:53;1999.90;;;999.90;;
21168;SDS011;10742;51.816;8.662;2023-08-12T09:23:15;1999.90;;;999.90;;
21168;SDS011;10742;51.816;8.662;2023-08-12T09:26:38;1999.90;;;999.90;;
21168;SDS011;10742;51.816;8.662;2023-08-12T09:29:44;1999.90;;;999.90;;
21168;SDS011;10742;51.816;8.662;2023-08-12T09:32:57;1999.90;;;999.90;;
21168;SDS011;10742;51.816;8.662;2023-08-12T09:36:02;1999.90;;;999.90;;
21168;SDS011;10742;51.816;8.662;2023-08-12T09:39:05;1999.90;;;999.90;;
21168;SDS011;10742;51.816;8.662;2023-08-12T09:42:11;1999.90;;;999.90;;
21168;SDS011;10742;51.816;8.662;2023-08-12T09:45:15;1999.90;;;999.90;;
21168;SDS011;10742;51.816;8.662;2023-08-12T09:48:17;1999.90;;;999.90;;
21168;SDS011;10742;51.816;8.662;2023-08-12T09:51:20;1999.90;;;999.90;;
21168;SDS011;10742;51.816;8.662;2023-08-12T09:54:26;1999.90;;;999.90;;
21168;SDS011;10742;51.816;8.662;2023-08-12T09:57:29;1999.90;;;999.90;;
21168;SDS011;10742;51.816;8.662;2023-08-12T10:00:35;1999.90;;;999.90;;
21168;SDS011;10742;51.816;8.662;2023-08-12T10:03:38;1999.90;;;999.90;;
21168;SDS011;10742;51.816;8.662;2023-08-12T10:06:41;1999.90;;;999.90;;
21168;SDS011;10742;51.816;8.662;2023-08-12T10:09:45;1999.90;;;999.90;;
21168;SDS011;10742;51.816;8.662;2023-08-12T10:12:48;1999.90;;;999.90;;
21168;SDS011;10742;51.816;8.662;2023-08-12T10:15:51;1999.90;;;951.65;;
21168;SDS011;10742;51.816;8.662;2023-08-12T10:18:55;1999.90;;;774.00;;
21168;SDS011;10742;51.816;8.662;2023-08-12T10:21:59;1999.90;;;718.97;;
21168;SDS011;10742;51.816;8.662;2023-08-12T10:25:03;1999.90;;;530.08;;
21168;SDS011;10742;51.816;8.662;2023-08-12T10:28:06;1999.90;;;415.02;;
21168;SDS011;10742;51.816;8.662;2023-08-12T10:31:08;1355.38;;;275.55;;
21168;SDS011;10742;51.816;8.662;2023-08-12T10:34:22;841.72;;;175.48;;
21168;SDS011;10742;51.816;8.662;2023-08-12T10:37:26;319.02;;;66.18;;
21168;SDS011;10742;51.816;8.662;2023-08-12T10:40:33;187.70;;;45.58;;
21168;SDS011;10742;51.816;8.662;2023-08-12T10:43:48;100.47;;;25.42;;
21168;SDS011;10742;51.816;8.662;2023-08-12T10:46:55;29.67;;;14.13;;
21168;SDS011;10742;51.816;8.662;2023-08-12T10:50:01;24.77;;;15.75;;
21168;SDS011;10742;51.816;8.662;2023-08-12T10:53:23;11.48;;;9.32;;
21168;SDS011;10742;51.816;8.662;2023-08-12T10:57:00;21.63;;;13.35;;
21168;SDS011;10742;51.816;8.662;2023-08-12T11:00:05;26.80;;;12.60;;
21168;SDS011;10742;51.816;8.662;2023-08-12T11:03:15;98.55;;;29.10;;
21168;SDS011;10742;51.816;8.662;2023-08-12T11:06:18;90.20;;;24.15;;
21168;SDS011;10742;51.816;8.662;2023-08-12T11:09:21;47.50;;;20.33;;
21168;SDS011;10742;51.816;8.662;2023-08-12T11:12:28;95.75;;;26.83;;
21168;SDS011;10742;51.816;8.662;2023-08-12T11:15:41;80.22;;;24.98;;
21168;SDS011;10742;51.816;8.662;2023-08-12T11:18:47;50.70;;;20.50;;
21168;SDS011;10742;51.816;8.662;2023-08-12T11:21:51;44.33;;;17.92;;
21168;SDS011;10742;51.816;8.662;2023-08-12T11:24:55;38.78;;;19.02;;
21168;SDS011;10742;51.816;8.662;2023-08-12T11:27:58;53.33;;;17.88;;
21168;SDS011;10742;51.816;8.662;2023-08-12T11:31:01;74.05;;;20.85;;
21168;SDS011;10742;51.816;8.662;2023-08-12T11:34:04;41.95;;;16.75;;
21168;SDS011;10742;51.816;8.662;2023-08-12T11:37:07;58.72;;;20.20;;
21168;SDS011;10742;51.816;8.662;2023-08-12T11:40:10;32.75;;;16.77;;
21168;SDS011;10742;51.816;8.662;2023-08-12T11:43:16;25.23;;;12.18;;
21168;SDS011;10742;51.816;8.662;2023-08-12T11:46:22;20.33;;;11.45;;
21168;SDS011;10742;51.816;8.662;2023-08-12T11:49:25;8.20;;;6.68;;
21168;SDS011;10742;51.816;8.662;2023-08-12T11:52:27;6.32;;;5.70;;
21168;SDS011;10742;51.816;8.662;2023-08-12T11:55:30;4.78;;;4.43;;
21168;SDS011;10742;51.816;8.662;2023-08-12T11:58:35;4.68;;;4.35;;
21168;SDS011;10742;51.816;8.662;2023-08-12T12:01:48;5.68;;;4.82;;
21168;SDS011;10742;51.816;8.662;2023-08-12T12:04:51;4.75;;;4.22;;
21168;SDS011;10742;51.816;8.662;2023-08-12T12:07:54;4.57;;;3.97;;
21168;SDS011;10742;51.816;8.662;2023-08-12T12:11:02;4.43;;;4.03;;
21168;SDS011;10742;51.816;8.662;2023-08-12T12:14:09;4.18;;;3.60;;
21168;SDS011;10742;51.816;8.662;2023-08-12T12:17:14;6.72;;;4.00;;
21168;SDS011;10742;51.816;8.662;2023-08-12T12:20:17;4.22;;;3.92;;
21168;SDS011;10742;51.816;8.662;2023-08-12T12:23:20;6.60;;;4.25;;
21168;SDS011;10742;51.816;8.662;2023-08-12T12:26:22;4.18;;;3.83;;
21168;SDS011;10742;51.816;8.662;2023-08-12T12:29:25;4.45;;;3.72;;
21168;SDS011;10742;51.816;8.662;2023-08-12T12:32:28;4.03;;;3.72;;
21168;SDS011;10742;51.816;8.662;2023-08-12T12:35:31;7.43;;;4.03;;
21168;SDS011;10742;51.816;8.662;2023-08-12T12:38:36;5.10;;;3.92;;
21168;SDS011;10742;51.816;8.662;2023-08-12T12:41:39;3.83;;;3.33;;
21168;SDS011;10742;51.816;8.662;2023-08-12T12:44:41;3.83;;;3.30;;
21168;SDS011;10742;51.816;8.662;2023-08-12T12:47:44;6.43;;;3.28;;
21168;SDS011;10742;51.816;8.662;2023-08-12T12:50:47;2.92;;;2.67;;
21168;SDS011;10742;51.816;8.662;2023-08-12T12:53:51;2.78;;;2.58;;
21168;SDS011;10742;51.816;8.662;2023-08-12T12:56:54;3.10;;;2.80;;
21168;SDS011;10742;51.816;8.662;2023-08-12T12:59:57;3.95;;;3.58;;
21168;SDS011;10742;51.816;8.662;2023-08-12T13:03:00;3.63;;;3.17;;
21168;SDS011;10742;51.816;8.662;2023-08-12T13:06:03;3.65;;;3.35;;
21168;SDS011;10742;51.816;8.662;2023-08-12T13:09:05;4.10;;;3.80;;
21168;SDS011;10742;51.816;8.662;2023-08-12T13:12:08;4.55;;;3.17;;
21168;SDS011;10742;51.816;8.662;2023-08-12T13:15:11;6.10;;;4.00;;
21168;SDS011;10742;51.816;8.662;2023-08-12T13:18:13;4.10;;;3.75;;
21168;SDS011;10742;51.816;8.662;2023-08-12T13:21:20;4.43;;;3.78;;
21168;SDS011;10742;51.816;8.662;2023-08-12T13:24:22;3.65;;;3.35;;
21168;SDS011;10742;51.816;8.662;2023-08-12T13:27:25;4.43;;;3.72;;
21168;SDS011;10742;51.816;8.662;2023-08-12T13:30:28;3.83;;;3.53;;
21168;SDS011;10742;51.816;8.662;2023-08-12T13:33:31;4.07;;;3.70;;
21168;SDS011;10742;51.816;8.662;2023-08-12T13:36:33;9.77;;;6.72;;
21168;SDS011;10742;51.816;8.662;2023-08-12T13:39:36;63.55;;;20.67;;
21168;SDS011;10742;51.816;8.662;2023-08-12T13:42:38;101.72;;;31.75;;
21168;SDS011;10742;51.816;8.662;2023-08-12T13:45:41;175.55;;;49.38;;
21168;SDS011;10742;51.816;8.662;2023-08-12T13:48:43;424.10;;;98.00;;
21168;SDS011;10742;51.816;8.662;2023-08-12T13:51:46;861.80;;;187.38;;
21168;SDS011;10742;51.816;8.662;2023-08-12T13:54:49;1006.67;;;227.93;;
21168;SDS011;10742;51.816;8.662;2023-08-12T13:57:51;1037.25;;;219.32;;
21168;SDS011;10742;51.816;8.662;2023-08-12T14:00:55;1306.43;;;264.58;;
21168;SDS011;10742;51.816;8.662;2023-08-12T14:03:57;1978.60;;;420.13;;
21168;SDS011;10742;51.816;8.662;2023-08-12T14:07:00;1999.90;;;500.73;;
21168;SDS011;10742;51.816;8.662;2023-08-12T14:10:03;1999.90;;;556.45;;
21168;SDS011;10742;51.816;8.662;2023-08-12T14:13:06;1999.90;;;755.10;;
21168;SDS011;10742;51.816;8.662;2023-08-12T14:16:09;1999.90;;;753.75;;
21168;SDS011;10742;51.816;8.662;2023-08-12T14:19:11;1999.90;;;893.65;;
21168;SDS011;10742;51.816;8.662;2023-08-12T14:22:18;1999.90;;;879.40;;
21168;SDS011;10742;51.816;8.662;2023-08-12T14:25:24;1999.90;;;902.92;;
21168;SDS011;10742;51.816;8.662;2023-08-12T14:28:27;1999.90;;;843.20;;
21168;SDS011;10742;51.816;8.662;2023-08-12T14:31:29;1999.90;;;926.22;;
21168;SDS011;10742;51.816;8.662;2023-08-12T14:34:32;1999.90;;;951.75;;
21168;SDS011;10742;51.816;8.662;2023-08-12T14:37:35;1999.90;;;783.28;;
21168;SDS011;10742;51.816;8.662;2023-08-12T14:40:37;1999.90;;;978.45;;
21168;SDS011;10742;51.816;8.662;2023-08-12T14:43:40;1999.90;;;999.90;;
21168;SDS011;10742;51.816;8.662;2023-08-12T14:46:42;1999.90;;;999.90;;
21168;SDS011;10742;51.816;8.662;2023-08-12T14:49:45;1999.90;;;999.90;;
21168;SDS011;10742;51.816;8.662;2023-08-12T14:52:51;1999.90;;;999.90;;
21168;SDS011;10742;51.816;8.662;2023-08-12T14:55:54;1999.90;;;999.90;;
21168;SDS011;10742;51.816;8.662;2023-08-12T14:58:57;1999.90;;;999.90;;
21168;SDS011;10742;51.816;8.662;2023-08-12T15:01:59;1999.90;;;999.90;;
21168;SDS011;10742;51.816;8.662;2023-08-12T15:05:02;1999.90;;;999.90;;
21168;SDS011;10742;51.816;8.662;2023-08-12T15:08:05;1999.90;;;999.90;;
21168;SDS011;10742;51.816;8.662;2023-08-12T15:11:08;1999.90;;;999.90;;
21168;SDS011;10742;51.816;8.662;2023-08-12T15:14:10;1999.90;;;999.90;;
21168;SDS011;10742;51.816;8.662;2023-08-12T15:17:13;1999.90;;;999.90;;
21168;SDS011;10742;51.816;8.662;2023-08-12T15:20:16;1999.90;;;999.90;;
21168;SDS011;10742;51.816;8.662;2023-08-12T15:23:20;1999.90;;;999.90;;
21168;SDS011;10742;51.816;8.662;2023-08-12T15:26:22;1999.90;;;999.90;;
21168;SDS011;10742;51.816;8.662;2023-08-12T15:29:25;1999.90;;;999.90;;
21168;SDS011;10742;51.816;8.662;2023-08-12T15:32:28;1999.90;;;999.90;;
21168;SDS011;10742;51.816;8.662;2023-08-12T15:35:32;1999.90;;;999.90;;
21168;SDS011;10742;51.816;8.662;2023-08-12T15:38:35;1999.90;;;999.90;;
21168;SDS011;10742;51.816;8.662;2023-08-12T15:41:41;1999.90;;;999.90;;
21168;SDS011;10742;51.816;8.662;2023-08-12T15:44:45;1999.90;;;999.90;;
21168;SDS011;10742;51.816;8.662;2023-08-12T15:47:48;1999.90;;;999.90;;
21168;SDS011;10742;51.816;8.662;2023-08-12T15:50:50;1999.90;;;999.90;;
21168;SDS011;10742;51.816;8.662;2023-08-12T15:53:53;1999.90;;;999.90;;
21168;SDS011;10742;51.816;8.662;2023-08-12T15:56:56;1999.90;;;999.90;;
21168;SDS011;10742;51.816;8.662;2023-08-12T15:59:58;1999.90;;;999.90;;
21168;SDS011;10742;51.816;8.662;2023-08-12T16:03:01;1999.90;;;999.90;;
21168;SDS011;10742;51.816;8.662;2023-08-12T16:06:04;1999.90;;;999.90;;
21168;SDS011;10742;51.816;8.662;2023-08-12T16:09:06;1999.90;;;999.90;;
21168;SDS011;10742;51.816;8.662;2023-08-12T16:12:18;1999.90;;;999.90;;
21168;SDS011;10742;51.816;8.662;2023-08-12T16:15:21;1999.90;;;999.90;;
21168;SDS011;10742;51.816;8.662;2023-08-12T16:18:24;1999.90;;;999.90;;
21168;SDS011;10742;51.816;8.662;2023-08-12T16:21:26;1999.90;;;999.90;;
21168;SDS011;10742;51.816;8.662;2023-08-12T16:24:29;1999.90;;;999.90;;
21168;SDS011;10742;51.816;8.662;2023-08-12T16:27:31;1999.90;;;999.90;;
21168;SDS011;10742;51.816;8.662;2023-08-12T16:30:34;1999.90;;;999.90;;
21168;SDS011;10742;51.816;8.662;2023-08-12T16:33:36;1999.90;;;999.90;;
21168;SDS011;10742;51.816;8.662;2023-08-12T16:36:39;1999.90;;;999.90;;
21168;SDS011;10742;51.816;8.662;2023-08-12T16:39:42;1999.90;;;999.90;;
21168;SDS011;10742;51.816;8.662;2023-08-12T16:42:44;1999.90;;;999.90;;
21168;SDS011;10742;51.816;8.662;2023-08-12T16:45:47;1999.90;;;999.90;;
21168;SDS011;10742;51.816;8.662;2023-08-12T16:48:50;1999.90;;;999.90;;
21168;SDS011;10742;51.816;8.662;2023-08-12T16:51:53;1999.90;;;999.90;;
21168;SDS011;10742;51.816;8.662;2023-08-12T16:54:55;1999.90;;;999.90;;
21168;SDS011;10742;51.816;8.662;2023-08-12T16:57:58;1999.90;;;999.90;;
21168;SDS011;10742;51.816;8.662;2023-08-12T17:01:00;1999.90;;;999.90;;
21168;SDS011;10742;51.816;8.662;2023-08-12T17:04:03;1999.90;;;999.90;;
21168;SDS011;10742;51.816;8.662;2023-08-12T17:07:08;1999.90;;;999.90;;
21168;SDS011;10742;51.816;8.662;2023-08-12T17:10:11;1999.90;;;999.90;;
21168;SDS011;10742;51.816;8.662;2023-08-12T17:13:13;1999.90;;;999.90;;
21168;SDS011;10742;51.816;8.662;2023-08-12T17:16:16;1999.90;;;999.90;;
21168;SDS011;10742;51.816;8.662;2023-08-12T17:19:19;1999.90;;;999.90;;
21168;SDS011;10742;51.816;8.662;2023-08-12T17:22:21;1999.90;;;999.90;;
21168;SDS011;10742;51.816;8.662;2023-08-12T17:25:24;1999.90;;;999.90;;
21168;SDS011;10742;51.816;8.662;2023-08-12T17:28:26;1999.90;;;999.90;;
21168;SDS011;10742;51.816;8.662;2023-08-12T17:31:29;1999.90;;;999.90;;